createdAt,value
2022-09-14T00:00:05.924Z,1000.84
2022-09-14T00:01:24.180Z,1000.84
2022-09-14T00:02:06.018Z,1000.84
2022-09-14T00:03:06.123Z,1000.83
2022-09-14T00:04:05.868Z,1000.84
2022-09-14T00:05:05.821Z,1000.81
2022-09-14T00:06:05.822Z,1000.85
2022-09-14T00:07:05.822Z,1000.83
2022-09-14T00:08:05.791Z,1000.83
2022-09-14T00:09:05.798Z,1000.85
2022-09-14T00:10:05.751Z,1000.85
2022-09-14T00:11:05.756Z,1000.89
2022-09-14T00:12:05.795Z,1000.90
2022-09-14T00:13:05.731Z,1000.89
2022-09-14T00:14:05.766Z,1000.94
2022-09-14T00:15:05.726Z,1000.91
2022-09-14T00:16:05.748Z,1000.91
2022-09-14T00:17:05.839Z,1000.90
2022-09-14T00:18:05.703Z,1000.90
2022-09-14T00:19:05.758Z,1000.90
2022-09-14T00:20:05.677Z,1000.88
2022-09-14T00:21:05.668Z,1000.86
2022-09-14T00:22:05.668Z,1000.82
2022-09-14T00:23:05.670Z,1000.78
2022-09-14T00:24:05.658Z,1000.77
2022-09-14T00:25:05.659Z,1000.75
2022-09-14T00:26:05.600Z,1000.78
2022-09-14T00:27:05.626Z,1000.73
2022-09-14T00:28:05.619Z,1000.73
2022-09-14T00:29:05.580Z,1000.71
2022-09-14T00:30:05.571Z,1000.68
2022-09-14T00:31:05.523Z,1000.68
2022-09-14T00:32:05.629Z,1000.69
2022-09-14T00:33:05.577Z,1000.67
2022-09-14T00:34:05.607Z,1000.65
2022-09-14T00:35:05.480Z,1000.61
2022-09-14T00:36:05.502Z,1000.66
2022-09-14T00:37:05.535Z,1000.65
2022-09-14T00:38:05.479Z,1000.63
2022-09-14T00:39:05.461Z,1000.60
2022-09-14T00:40:05.535Z,1000.62
2022-09-14T00:41:05.451Z,1000.61
2022-09-14T00:42:05.492Z,1000.57
2022-09-14T00:43:05.427Z,1000.55
2022-09-14T00:44:05.390Z,1000.51
2022-09-14T00:45:05.366Z,1000.53
2022-09-14T00:46:05.536Z,1000.52
2022-09-14T00:47:05.370Z,1000.51
2022-09-14T00:48:05.349Z,1000.52
2022-09-14T00:49:05.419Z,1000.51
2022-09-14T00:50:05.330Z,1000.45
2022-09-14T00:51:05.347Z,1000.45
2022-09-14T00:52:05.309Z,1000.41
2022-09-14T00:53:05.273Z,1000.44
2022-09-14T00:54:05.344Z,1000.44
2022-09-14T00:55:05.291Z,1000.40
2022-09-14T00:56:05.261Z,1000.45
2022-09-14T00:57:05.282Z,1000.41
2022-09-14T00:58:05.215Z,1000.37
2022-09-14T00:59:05.238Z,1000.36
2022-09-14T01:00:05.206Z,1000.36
2022-09-14T01:01:05.249Z,1000.34
2022-09-14T01:02:05.240Z,1000.34
2022-09-14T01:03:05.182Z,1000.30
2022-09-14T01:04:05.236Z,1000.33
2022-09-14T01:05:05.140Z,1000.28
2022-09-14T01:06:05.151Z,1000.28
2022-09-14T01:07:05.154Z,1000.28
2022-09-14T01:08:05.144Z,1000.30
2022-09-14T01:09:05.128Z,1000.30
2022-09-14T01:10:05.131Z,1000.28
2022-09-14T01:11:05.080Z,1000.26
2022-09-14T01:12:05.064Z,1000.24
2022-09-14T01:13:05.059Z,1000.21
2022-09-14T01:14:05.054Z,1000.18
2022-09-14T01:15:05.084Z,1000.14
2022-09-14T01:16:05.116Z,1000.14
2022-09-14T01:17:05.023Z,1000.13
2022-09-14T01:18:05.016Z,1000.12
2022-09-14T01:19:05.030Z,1000.10
2022-09-14T01:20:05.013Z,1000.12
2022-09-14T01:21:04.995Z,1000.07
2022-09-14T01:22:04.972Z,1000.10
2022-09-14T01:23:04.966Z,1000.09
2022-09-14T01:24:05.013Z,1000.07
2022-09-14T01:25:04.955Z,1000.02
2022-09-14T01:26:04.959Z,1000.05
2022-09-14T01:27:04.901Z,1000.02
2022-09-14T01:28:04.888Z,1000.04
2022-09-14T01:29:04.923Z,1000.05
2022-09-14T01:30:04.890Z,1000.05
2022-09-14T01:31:04.886Z,1000.02
2022-09-14T01:32:04.945Z,999.98
2022-09-14T01:33:04.849Z,999.97
2022-09-14T01:34:04.836Z,999.96
2022-09-14T01:35:04.799Z,999.99
2022-09-14T01:36:04.828Z,1000.01
2022-09-14T01:37:04.799Z,1000.01
2022-09-14T01:38:04.813Z,1000.03
2022-09-14T01:39:04.769Z,999.99
2022-09-14T01:40:04.858Z,1000.03
2022-09-14T01:41:04.765Z,1000.03
2022-09-14T01:42:04.782Z,1000.03
2022-09-14T01:43:04.741Z,1000.05
2022-09-14T01:44:04.730Z,1000.04
2022-09-14T01:45:04.708Z,1000.02
2022-09-14T01:46:04.827Z,1000.01
2022-09-14T01:47:04.666Z,999.93
2022-09-14T01:48:04.700Z,999.90
2022-09-14T01:49:04.675Z,999.91
2022-09-14T01:50:04.634Z,999.91
2022-09-14T01:51:04.671Z,999.89
2022-09-14T01:52:04.639Z,999.97
2022-09-14T01:53:04.648Z,999.95
2022-09-14T01:54:04.668Z,1000.00
2022-09-14T01:55:04.587Z,999.97
2022-09-14T01:56:04.591Z,999.96
2022-09-14T01:57:04.562Z,999.94
2022-09-14T01:58:04.558Z,999.94
2022-09-14T01:59:04.540Z,999.92
2022-09-14T02:00:04.552Z,999.93
2022-09-14T02:01:04.627Z,999.89
2022-09-14T02:02:04.549Z,999.85
2022-09-14T02:03:04.539Z,999.88
2022-09-14T02:04:04.586Z,999.90
2022-09-14T02:05:04.481Z,999.90
2022-09-14T02:06:04.537Z,999.83
2022-09-14T02:07:04.457Z,999.84
2022-09-14T02:08:04.455Z,999.86
2022-09-14T02:09:04.413Z,999.83
2022-09-14T02:10:04.423Z,999.82
2022-09-14T02:11:04.475Z,999.83
2022-09-14T02:12:04.399Z,999.83
2022-09-14T02:13:04.460Z,999.85
2022-09-14T02:14:04.373Z,999.77
2022-09-14T02:15:04.380Z,999.81
2022-09-14T02:16:04.444Z,999.79
2022-09-14T02:17:04.419Z,999.78
2022-09-14T02:18:04.333Z,999.76
2022-09-14T02:19:04.321Z,999.77
2022-09-14T02:20:04.336Z,999.72
2022-09-14T02:21:04.348Z,999.76
2022-09-14T02:22:04.296Z,999.78
2022-09-14T02:23:04.286Z,999.74
2022-09-14T02:24:04.330Z,999.72
2022-09-14T02:25:04.245Z,999.69
2022-09-14T02:26:04.250Z,999.70
2022-09-14T02:27:04.254Z,999.68
2022-09-14T02:28:04.235Z,999.70
2022-09-14T02:29:04.222Z,999.75
2022-09-14T02:30:04.243Z,999.71
2022-09-14T02:31:04.299Z,999.63
2022-09-14T02:32:04.207Z,999.63
2022-09-14T02:33:04.198Z,999.59
2022-09-14T02:34:04.187Z,999.57
2022-09-14T02:35:04.149Z,999.60
2022-09-14T02:36:04.141Z,999.57
2022-09-14T02:37:04.527Z,999.57
2022-09-14T02:38:04.135Z,999.57
2022-09-14T02:39:04.111Z,999.62
2022-09-14T02:40:04.197Z,999.59
2022-09-14T02:41:04.074Z,999.62
2022-09-14T02:42:04.047Z,999.57
2022-09-14T02:43:04.081Z,999.61
2022-09-14T02:44:04.081Z,999.58
2022-09-14T02:45:04.022Z,999.56
2022-09-14T02:46:04.022Z,999.53
2022-09-14T02:47:04.033Z,999.52
2022-09-14T02:48:04.057Z,999.48
2022-09-14T02:49:04.032Z,999.46
2022-09-14T02:50:03.984Z,999.49
2022-09-14T02:51:03.962Z,999.51
2022-09-14T02:52:03.941Z,999.55
2022-09-14T02:53:03.990Z,999.54
2022-09-14T02:54:03.951Z,999.57
2022-09-14T02:55:03.926Z,999.57
2022-09-14T02:56:03.908Z,999.58
2022-09-14T02:57:03.901Z,999.58
2022-09-14T02:58:03.902Z,999.59
2022-09-14T02:59:03.860Z,999.63
2022-09-14T03:00:03.848Z,999.60
2022-09-14T03:01:03.990Z,999.57
2022-09-14T03:02:03.954Z,999.54
2022-09-14T03:03:03.842Z,999.56
2022-09-14T03:04:03.874Z,999.53
2022-09-14T03:05:03.808Z,999.56
2022-09-14T03:06:03.822Z,999.57
2022-09-14T03:07:03.816Z,999.53
2022-09-14T03:08:03.759Z,999.58
2022-09-14T03:09:03.783Z,999.52
2022-09-14T03:10:03.745Z,999.49
2022-09-14T03:11:03.727Z,999.52
2022-09-14T03:12:03.782Z,999.50
2022-09-14T03:13:03.723Z,999.51
2022-09-14T03:14:03.746Z,999.51
2022-09-14T03:15:03.703Z,999.50
2022-09-14T03:16:03.740Z,999.49
2022-09-14T03:17:03.662Z,999.47
2022-09-14T03:18:03.658Z,999.41
2022-09-14T03:19:03.639Z,999.44
2022-09-14T03:20:03.624Z,999.40
2022-09-14T03:21:03.634Z,999.36
2022-09-14T03:22:03.606Z,999.35
2022-09-14T03:23:03.599Z,999.31
2022-09-14T03:24:03.599Z,999.29
2022-09-14T03:25:03.589Z,999.31
2022-09-14T03:26:03.573Z,999.34
2022-09-14T03:27:03.554Z,999.30
2022-09-14T03:28:03.539Z,999.31
2022-09-14T03:29:03.532Z,999.29
2022-09-14T03:30:03.549Z,999.31
2022-09-14T03:31:03.583Z,999.28
2022-09-14T03:32:03.560Z,999.28
2022-09-14T03:33:03.489Z,999.29
2022-09-14T03:34:03.508Z,999.29
2022-09-14T03:35:03.480Z,999.28
2022-09-14T03:36:03.460Z,999.29
2022-09-14T03:37:03.442Z,999.29
2022-09-14T03:38:03.510Z,999.31
2022-09-14T03:39:03.403Z,999.28
2022-09-14T03:40:03.441Z,999.28
2022-09-14T03:41:03.473Z,999.23
2022-09-14T03:42:03.428Z,999.25
2022-09-14T03:43:03.373Z,999.23
2022-09-14T03:44:03.353Z,999.26
2022-09-14T03:45:03.325Z,999.23
2022-09-14T03:46:03.433Z,999.28
2022-09-14T03:47:03.382Z,999.27
2022-09-14T03:48:03.407Z,999.26
2022-09-14T03:49:03.323Z,999.24
2022-09-14T03:50:03.281Z,999.23
2022-09-14T03:51:03.287Z,999.19
2022-09-14T03:52:03.257Z,999.17
2022-09-14T03:53:03.274Z,999.18
2022-09-14T03:54:03.310Z,999.15
2022-09-14T03:55:03.290Z,999.17
2022-09-14T03:56:03.237Z,999.16
2022-09-14T03:57:03.208Z,999.15
2022-09-14T03:58:03.224Z,999.13
2022-09-14T03:59:03.173Z,999.13
2022-09-14T04:00:03.286Z,999.16
2022-09-14T04:01:03.207Z,999.15
2022-09-14T04:02:03.201Z,999.15
2022-09-14T04:03:03.209Z,999.10
2022-09-14T04:04:03.153Z,999.10
2022-09-14T04:05:03.142Z,999.07
2022-09-14T04:06:03.120Z,999.11
2022-09-14T04:07:03.125Z,999.08
2022-09-14T04:08:03.099Z,999.08
2022-09-14T04:09:03.061Z,999.06
2022-09-14T04:10:03.104Z,999.08
2022-09-14T04:11:03.133Z,999.03
2022-09-14T04:12:03.070Z,999.07
2022-09-14T04:13:03.045Z,999.03
2022-09-14T04:14:03.040Z,999.00
2022-09-14T04:15:03.033Z,999.03
2022-09-14T04:16:03.050Z,999.00
2022-09-14T04:17:03.034Z,998.96
2022-09-14T04:18:02.962Z,998.97
2022-09-14T04:19:02.950Z,998.96
2022-09-14T04:20:02.943Z,998.94
2022-09-14T04:21:07.854Z,998.91
2022-09-14T04:22:02.965Z,998.92
2022-09-14T04:23:02.956Z,998.93
2022-09-14T04:24:14.754Z,998.94
2022-09-14T04:25:02.870Z,998.91
2022-09-14T04:26:02.883Z,998.96
2022-09-14T04:27:02.876Z,998.93
2022-09-14T04:28:19.600Z,998.95
2022-09-14T04:29:02.928Z,998.93
2022-09-14T04:30:02.835Z,998.92
2022-09-14T04:31:02.870Z,998.93
2022-09-14T04:32:02.937Z,998.93
2022-09-14T04:33:02.784Z,998.93
2022-09-14T04:34:02.776Z,998.93
2022-09-14T04:35:02.777Z,998.98
2022-09-14T04:36:02.795Z,998.97
2022-09-14T04:37:02.731Z,998.94
2022-09-14T04:38:02.778Z,998.97
2022-09-14T04:39:02.713Z,998.98
2022-09-14T04:40:02.756Z,998.95
2022-09-14T04:41:02.715Z,998.98
2022-09-14T04:42:02.696Z,998.94
2022-09-14T04:43:02.720Z,998.91
2022-09-14T04:44:02.694Z,998.91
2022-09-14T04:45:02.654Z,998.93
2022-09-14T04:46:02.721Z,998.91
2022-09-14T04:47:02.700Z,998.89
2022-09-14T04:48:02.624Z,998.87
2022-09-14T04:49:02.589Z,998.86
2022-09-14T04:50:02.596Z,998.88
2022-09-14T04:51:02.603Z,998.85
2022-09-14T04:52:02.548Z,998.86
2022-09-14T04:53:02.553Z,998.84
2022-09-14T04:54:02.561Z,998.83
2022-09-14T04:55:02.590Z,998.80
2022-09-14T04:56:02.551Z,998.79
2022-09-14T04:57:02.545Z,998.77
2022-09-14T04:58:02.481Z,998.76
2022-09-14T04:59:02.492Z,998.77
2022-09-14T05:00:02.465Z,998.77
2022-09-14T05:01:02.481Z,998.76
2022-09-14T05:02:02.502Z,998.76
2022-09-14T05:03:02.510Z,998.82
2022-09-14T05:04:02.446Z,998.80
2022-09-14T05:05:02.448Z,998.82
2022-09-14T05:06:02.415Z,998.81
2022-09-14T05:07:02.386Z,998.81
2022-09-14T05:08:02.404Z,998.80
2022-09-14T05:09:02.372Z,998.79
2022-09-14T05:10:02.374Z,998.82
2022-09-14T05:11:02.385Z,998.76
2022-09-14T05:12:02.378Z,998.77
2022-09-14T05:13:02.311Z,998.75
2022-09-14T05:14:02.300Z,998.81
2022-09-14T05:15:02.295Z,998.82
2022-09-14T05:16:02.433Z,998.82
2022-09-14T05:17:02.263Z,998.83
2022-09-14T05:18:02.249Z,998.81
2022-09-14T05:19:02.240Z,998.83
2022-09-14T05:20:02.250Z,998.79
2022-09-14T05:21:07.617Z,998.79
2022-09-14T05:22:02.216Z,998.79
2022-09-14T05:23:02.210Z,998.78
2022-09-14T05:24:02.178Z,998.79
2022-09-14T05:25:02.220Z,998.81
2022-09-14T05:26:02.219Z,998.84
2022-09-14T05:27:02.456Z,998.75
2022-09-14T05:28:02.128Z,998.75
2022-09-14T05:29:02.135Z,998.76
2022-09-14T05:30:02.144Z,998.73
2022-09-14T05:31:02.146Z,998.68
2022-09-14T05:32:02.099Z,998.71
2022-09-14T05:33:02.105Z,998.75
2022-09-14T05:34:02.064Z,998.74
2022-09-14T05:35:02.047Z,998.75
2022-09-14T05:36:02.067Z,998.75
2022-09-14T05:37:02.057Z,998.72
2022-09-14T05:38:02.010Z,998.72
2022-09-14T05:39:02.012Z,998.70
2022-09-14T05:40:02.091Z,998.72
2022-09-14T05:41:02.015Z,998.69
2022-09-14T05:42:01.967Z,998.73
2022-09-14T05:43:01.944Z,998.65
2022-09-14T05:44:01.961Z,998.69
2022-09-14T05:45:01.957Z,998.68
2022-09-14T05:46:02.112Z,998.70
2022-09-14T05:47:01.927Z,998.69
2022-09-14T05:48:01.958Z,998.75
2022-09-14T05:49:01.933Z,998.73
2022-09-14T05:50:01.885Z,998.73
2022-09-14T05:51:02.080Z,998.77
2022-09-14T05:52:01.957Z,998.77
2022-09-14T05:53:01.894Z,998.77
2022-09-14T05:54:01.894Z,998.76
2022-09-14T05:55:01.852Z,998.77
2022-09-14T05:56:01.941Z,998.80
2022-09-14T05:57:01.834Z,998.77
2022-09-14T05:58:01.835Z,998.76
2022-09-14T05:59:01.892Z,998.74
2022-09-14T06:00:01.781Z,998.72
2022-09-14T06:01:01.850Z,998.72
2022-09-14T06:02:01.892Z,998.72
2022-09-14T06:03:01.879Z,998.73
2022-09-14T06:04:01.738Z,998.71
2022-09-14T06:05:01.958Z,998.70
2022-09-14T06:06:01.791Z,998.72
2022-09-14T06:07:18.451Z,998.73
2022-09-14T06:08:02.747Z,998.70
2022-09-14T06:09:03.300Z,998.69
2022-09-14T06:10:01.944Z,998.70
2022-09-14T06:13:06.137Z,998.67
2022-09-14T06:14:09.053Z,998.63
2022-09-14T06:15:06.907Z,998.66
2022-09-14T06:16:09.596Z,998.65
2022-09-14T06:17:06.329Z,998.62
2022-09-14T06:18:07.047Z,998.64
2022-09-14T06:19:09.926Z,998.64
2022-09-14T06:20:19.562Z,998.69
2022-09-14T06:21:07.303Z,998.68
2022-09-14T06:22:07.283Z,998.68
2022-09-14T06:23:07.793Z,998.69
2022-09-14T06:25:30.424Z,998.65
2022-09-14T06:26:30.515Z,998.71
2022-09-14T06:27:30.992Z,998.66
2022-09-14T06:28:29.950Z,998.66
2022-09-14T06:29:29.582Z,998.68
2022-09-14T06:30:30.802Z,998.69
2022-09-14T06:31:40.955Z,998.73
2022-09-14T06:32:31.947Z,998.73
2022-09-14T06:33:35.155Z,998.74
2022-09-14T06:34:30.548Z,998.75
2022-09-14T06:35:45.427Z,998.76
2022-09-14T06:36:31.105Z,998.76
2022-09-14T06:37:32.056Z,998.72
2022-09-14T06:38:29.536Z,998.74
2022-09-14T06:39:31.644Z,998.72
2022-09-14T06:40:31.668Z,998.74
2022-09-14T06:41:30.153Z,998.74
2022-09-14T06:42:29.312Z,998.74
2022-09-14T06:43:29.163Z,998.78
2022-09-14T06:44:30.019Z,998.77
2022-09-14T06:45:31.637Z,998.77
2022-09-14T06:46:29.910Z,998.80
2022-09-14T06:47:29.768Z,998.76
2022-09-14T06:48:29.102Z,998.76
2022-09-14T06:49:29.207Z,998.76
2022-09-14T06:50:29.650Z,998.74
2022-09-14T06:51:29.042Z,998.74
2022-09-14T06:52:33.605Z,998.73
2022-09-14T06:53:28.842Z,998.72
2022-09-14T06:54:29.169Z,998.69
2022-09-14T06:55:29.740Z,998.67
2022-09-14T06:56:29.190Z,998.60
2022-09-14T06:57:29.427Z,998.56
2022-09-14T06:58:28.776Z,998.56
2022-09-14T06:59:28.745Z,998.61
2022-09-14T07:00:29.558Z,998.64
2022-09-14T07:01:29.481Z,998.69
2022-09-14T07:02:29.988Z,998.70
2022-09-14T07:03:32.044Z,998.72
2022-09-14T07:04:29.766Z,998.72
2022-09-14T07:05:36.814Z,998.70
2022-09-14T07:06:29.459Z,998.69
2022-09-14T07:07:29.333Z,998.73
2022-09-14T07:08:28.882Z,998.67
2022-09-14T07:09:30.098Z,998.72
2022-09-14T07:10:28.955Z,998.73
2022-09-14T07:11:28.799Z,998.76
2022-09-14T07:12:28.838Z,998.77
2022-09-14T07:13:29.876Z,998.77
2022-09-14T07:14:32.216Z,998.75
2022-09-14T07:15:28.728Z,998.76
2022-09-14T07:16:28.689Z,998.79
2022-09-14T07:17:28.965Z,998.79
2022-09-14T07:18:28.812Z,998.80
2022-09-14T07:19:28.761Z,998.80
2022-09-14T07:20:28.999Z,998.78
2022-09-14T07:21:29.107Z,998.75
2022-09-14T07:22:28.457Z,998.70
2022-09-14T07:23:28.731Z,998.76
2022-09-14T07:24:29.098Z,998.78
2022-09-14T07:25:29.861Z,998.79
2022-09-14T07:26:29.280Z,998.86
2022-09-14T07:27:27.336Z,998.78
2022-09-14T07:28:29.155Z,998.76
2022-09-14T07:29:28.760Z,998.74
2022-09-14T07:30:28.815Z,998.76
2022-09-14T07:31:28.971Z,998.77
2022-09-14T07:32:29.574Z,998.82
2022-09-14T07:33:37.325Z,998.78
2022-09-14T07:34:29.889Z,998.78
2022-09-14T07:35:30.668Z,998.76
2022-09-14T07:36:32.677Z,998.75
2022-09-14T07:37:28.399Z,998.77
2022-09-14T07:38:50.627Z,998.77
2022-09-14T07:39:28.730Z,998.78
2022-09-14T07:40:28.451Z,998.72
2022-09-14T07:41:28.566Z,998.73
2022-09-14T07:42:28.407Z,998.68
2022-09-14T07:43:28.449Z,998.69
2022-09-14T07:44:28.335Z,998.73
2022-09-14T07:45:28.566Z,998.72
2022-09-14T07:46:28.241Z,998.74
2022-09-14T07:47:28.267Z,998.80
2022-09-14T07:48:28.150Z,998.81
2022-09-14T07:49:28.304Z,998.79
2022-09-14T07:50:28.035Z,998.82
2022-09-14T07:51:28.097Z,998.82
2022-09-14T07:52:27.976Z,998.81
2022-09-14T07:53:27.905Z,998.88
2022-09-14T07:54:27.941Z,998.89
2022-09-14T07:55:27.827Z,998.90
2022-09-14T07:56:27.962Z,998.90
2022-09-14T07:57:52.180Z,998.86
2022-09-14T07:58:27.843Z,998.86
2022-09-14T07:59:36.413Z,998.84
2022-09-14T08:00:28.327Z,998.80
2022-09-14T08:01:28.226Z,998.78
2022-09-14T08:02:28.129Z,998.72
2022-09-14T08:03:27.777Z,998.69
2022-09-14T08:04:27.958Z,998.73
2022-09-14T08:05:28.101Z,998.73
2022-09-14T08:06:27.841Z,998.76
2022-09-14T08:07:27.678Z,998.81
2022-09-14T08:08:27.660Z,998.82
2022-09-14T08:09:27.657Z,998.80
2022-09-14T08:10:27.644Z,998.78
2022-09-14T08:11:27.614Z,998.80
2022-09-14T08:12:27.649Z,998.78
2022-09-14T08:13:27.613Z,998.77
2022-09-14T08:14:27.606Z,998.71
2022-09-14T08:15:28.672Z,998.75
2022-09-14T08:16:27.622Z,998.76
2022-09-14T08:17:27.569Z,998.76
2022-09-14T08:18:27.557Z,998.80
2022-09-14T08:19:27.544Z,998.76
2022-09-14T08:20:27.516Z,998.85
2022-09-14T08:21:27.548Z,998.88
2022-09-14T08:22:27.544Z,998.92
2022-09-14T08:23:27.496Z,998.92
2022-09-14T08:24:27.480Z,998.84
2022-09-14T08:25:27.486Z,998.86
2022-09-14T08:26:27.471Z,998.80
2022-09-14T08:27:27.493Z,998.75
2022-09-14T08:28:27.421Z,998.72
2022-09-14T08:29:27.477Z,998.70
2022-09-14T08:30:27.422Z,998.69
2022-09-14T08:31:27.509Z,998.66
2022-09-14T08:32:27.461Z,998.67
2022-09-14T08:33:27.366Z,998.65
2022-09-14T08:34:27.471Z,998.67
2022-09-14T08:35:54.011Z,998.62
2022-09-14T08:36:28.092Z,998.65
2022-09-14T08:37:27.409Z,998.62
2022-09-14T08:38:27.397Z,998.61
2022-09-14T08:39:27.322Z,998.61
2022-09-14T08:40:27.401Z,998.63
2022-09-14T08:41:27.566Z,998.60
2022-09-14T08:42:27.296Z,998.63
2022-09-14T08:43:27.359Z,998.64
2022-09-14T08:44:27.310Z,998.63
2022-09-14T08:45:27.325Z,998.62
2022-09-14T08:46:27.245Z,998.64
2022-09-14T08:47:27.207Z,998.57
2022-09-14T08:48:27.252Z,998.56
2022-09-14T08:49:27.280Z,998.54
2022-09-14T08:50:27.187Z,998.53
2022-09-14T08:51:27.251Z,998.51
2022-09-14T08:52:27.280Z,998.54
2022-09-14T08:53:27.243Z,998.46
2022-09-14T08:54:27.312Z,998.50
2022-09-14T08:55:27.307Z,998.44
2022-09-14T08:56:27.278Z,998.50
2022-09-14T08:57:27.193Z,998.47
2022-09-14T08:58:27.451Z,998.46
2022-09-14T08:59:27.462Z,998.46
2022-09-14T09:00:27.221Z,998.44
2022-09-14T09:01:27.221Z,998.38
2022-09-14T09:02:27.415Z,998.35
2022-09-14T09:03:27.133Z,998.29
2022-09-14T09:04:27.185Z,998.34
2022-09-14T09:05:27.243Z,998.36
2022-09-14T09:06:27.364Z,998.37
2022-09-14T09:07:27.126Z,998.39
2022-09-14T09:08:27.225Z,998.37
2022-09-14T09:09:27.205Z,998.37
2022-09-14T09:10:27.244Z,998.38
2022-09-14T09:11:26.995Z,998.42
2022-09-14T09:12:27.004Z,998.41
2022-09-14T09:13:26.916Z,998.43
2022-09-14T09:14:27.294Z,998.48
2022-09-14T09:15:27.033Z,998.45
2022-09-14T09:16:27.476Z,998.47
2022-09-14T09:17:27.117Z,998.51
2022-09-14T09:18:27.053Z,998.51
2022-09-14T09:19:28.821Z,998.52
2022-09-14T09:20:26.933Z,998.50
2022-09-14T09:21:27.470Z,998.52
2022-09-14T09:22:27.024Z,998.52
2022-09-14T09:23:27.093Z,998.51
2022-09-14T09:24:27.782Z,998.55
2022-09-14T09:25:26.968Z,998.57
2022-09-14T09:26:26.825Z,998.52
2022-09-14T09:27:26.768Z,998.59
2022-09-14T09:28:27.624Z,998.58
2022-09-14T09:29:26.940Z,998.61
2022-09-14T09:30:26.965Z,998.61
2022-09-14T09:31:26.962Z,998.60
2022-09-14T09:32:27.514Z,998.53
2022-09-14T09:33:27.320Z,998.53
2022-09-14T09:34:26.882Z,998.57
2022-09-14T09:35:27.271Z,998.57
2022-09-14T09:36:27.052Z,998.61
2022-09-14T09:37:27.371Z,998.59
2022-09-14T09:38:27.287Z,998.60
2022-09-14T09:39:26.966Z,998.56
2022-09-14T09:40:26.774Z,998.57
2022-09-14T09:41:26.628Z,998.51
2022-09-14T09:42:26.682Z,998.49
2022-09-14T09:43:45.696Z,998.53
2022-09-14T09:44:26.658Z,998.50
2022-09-14T09:45:26.632Z,998.50
2022-09-14T09:46:26.622Z,998.48
2022-09-14T09:47:26.557Z,998.46
2022-09-14T09:48:26.619Z,998.48
2022-09-14T09:49:26.725Z,998.47
2022-09-14T09:50:26.569Z,998.48
2022-09-14T09:51:26.639Z,998.48
2022-09-14T09:52:26.604Z,998.49
2022-09-14T09:53:26.523Z,998.48
2022-09-14T09:54:26.599Z,998.47
2022-09-14T09:55:26.828Z,998.47
2022-09-14T09:56:26.663Z,998.46
2022-09-14T09:57:26.434Z,998.46
2022-09-14T09:58:26.512Z,998.42
2022-09-14T09:59:26.452Z,998.42
2022-09-14T10:00:26.636Z,998.41
2022-09-14T10:01:26.582Z,998.37
2022-09-14T10:02:26.570Z,998.39
2022-09-14T10:03:26.709Z,998.37
2022-09-14T10:04:26.583Z,998.35
2022-09-14T10:05:26.544Z,998.35
2022-09-14T10:06:26.430Z,998.36
2022-09-14T10:07:26.357Z,998.35
2022-09-14T10:08:26.375Z,998.38
2022-09-14T10:09:26.456Z,998.34
2022-09-14T10:10:26.494Z,998.35
2022-09-14T10:11:26.338Z,998.32
2022-09-14T10:12:26.307Z,998.36
2022-09-14T10:13:26.334Z,998.36
2022-09-14T10:14:26.512Z,998.35
2022-09-14T10:15:26.347Z,998.34
2022-09-14T10:16:26.379Z,998.32
2022-09-14T10:17:26.310Z,998.36
2022-09-14T10:18:26.276Z,998.33
2022-09-14T10:19:26.369Z,998.31
2022-09-14T10:20:26.342Z,998.36
2022-09-14T10:21:26.234Z,998.28
2022-09-14T10:22:26.737Z,998.26
2022-09-14T10:23:26.272Z,998.28
2022-09-14T10:24:26.339Z,998.27
2022-09-14T10:25:26.222Z,998.25
2022-09-14T10:26:26.321Z,998.30
2022-09-14T10:27:26.205Z,998.27
2022-09-14T10:28:26.339Z,998.34
2022-09-14T10:30:38.761Z,998.39
2022-09-14T10:31:39.427Z,998.37
2022-09-14T10:32:39.559Z,998.45
2022-09-14T10:33:39.729Z,998.43
2022-09-14T10:34:39.627Z,998.43
2022-09-14T10:35:39.567Z,998.42
2022-09-14T10:36:39.390Z,998.49
2022-09-14T10:37:39.539Z,998.45
2022-09-14T10:38:39.615Z,998.49
2022-09-14T10:39:39.619Z,998.50
2022-09-14T10:40:39.405Z,998.53
2022-09-14T10:41:39.337Z,998.51
2022-09-14T10:42:39.384Z,998.51
2022-09-14T10:43:39.535Z,998.55
2022-09-14T10:44:39.261Z,998.52
2022-09-14T10:45:39.512Z,998.54
2022-09-14T10:46:39.378Z,998.48
2022-09-14T10:47:39.204Z,998.51
2022-09-14T10:48:39.371Z,998.50
2022-09-14T10:49:39.256Z,998.50
2022-09-14T10:50:39.401Z,998.53
2022-09-14T10:51:39.261Z,998.51
2022-09-14T10:52:39.162Z,998.51
2022-09-14T10:53:39.269Z,998.52
2022-09-14T10:54:39.385Z,998.49
2022-09-14T10:55:39.334Z,998.49
2022-09-14T10:56:39.170Z,998.42
2022-09-14T10:57:39.172Z,998.47
2022-09-14T10:58:39.249Z,998.40
2022-09-14T10:59:39.165Z,998.45
2022-09-14T11:00:39.354Z,998.42
2022-09-14T11:01:39.231Z,998.40
2022-09-14T11:02:39.212Z,998.37
2022-09-14T11:03:42.788Z,998.34
2022-09-14T11:04:39.277Z,998.35
2022-09-14T11:05:39.059Z,998.33
2022-09-14T11:06:39.041Z,998.35
2022-09-14T11:07:39.067Z,998.33
2022-09-14T11:08:39.111Z,998.36
2022-09-14T11:09:38.916Z,998.30
2022-09-14T11:10:39.053Z,998.27
2022-09-14T11:11:39.004Z,998.29
2022-09-14T11:12:39.238Z,998.27
2022-09-14T11:13:39.003Z,998.23
2022-09-14T11:14:38.938Z,998.23
2022-09-14T11:15:38.958Z,998.21
2022-09-14T11:16:38.897Z,998.23
2022-09-14T11:17:38.974Z,998.25
2022-09-14T11:18:38.938Z,998.23
2022-09-14T11:19:38.889Z,998.23
2022-09-14T11:20:42.618Z,998.21
2022-09-14T11:21:38.848Z,998.13
2022-09-14T11:22:38.752Z,998.02
2022-09-14T11:23:38.819Z,998.00
2022-09-14T11:24:38.818Z,997.99
2022-09-14T11:25:38.918Z,998.06
2022-09-14T11:26:42.216Z,998.04
2022-09-14T11:27:38.797Z,998.01
2022-09-14T11:28:38.753Z,998.01
2022-09-14T11:29:38.827Z,997.96
2022-09-14T11:30:38.901Z,997.99
2022-09-14T11:31:38.917Z,998.09
2022-09-14T11:32:38.815Z,998.10
2022-09-14T11:33:38.735Z,998.06
2022-09-14T11:34:38.739Z,998.08
2022-09-14T11:35:38.722Z,998.09
2022-09-14T11:36:38.692Z,998.05
2022-09-14T11:37:38.711Z,998.04
2022-09-14T11:38:38.646Z,998.01
2022-09-14T11:39:38.739Z,997.98
2022-09-14T11:40:38.720Z,997.95
2022-09-14T11:41:38.649Z,997.98
2022-09-14T11:42:38.652Z,998.02
2022-09-14T11:43:38.669Z,998.03
2022-09-14T11:44:38.633Z,998.07
2022-09-14T11:45:38.645Z,998.04
2022-09-14T11:46:38.583Z,998.05
2022-09-14T11:47:38.778Z,997.99
2022-09-14T11:48:42.674Z,998.01
2022-09-14T11:49:38.475Z,998.00
2022-09-14T11:50:38.623Z,997.96
2022-09-14T11:51:38.568Z,997.98
2022-09-14T11:52:38.507Z,997.95
2022-09-14T11:53:38.655Z,997.95
2022-09-14T11:54:39.995Z,997.97
2022-09-14T11:55:38.683Z,997.97
2022-09-14T11:56:38.503Z,997.93
2022-09-14T11:57:38.735Z,997.93
2022-09-14T11:58:38.415Z,997.89
2022-09-14T11:59:38.457Z,997.92
2022-09-14T12:00:38.644Z,997.90
2022-09-14T12:01:38.408Z,997.94
2022-09-14T12:02:38.392Z,997.97
2022-09-14T12:03:38.485Z,997.96
2022-09-14T12:04:38.387Z,998.02
2022-09-14T12:05:38.366Z,997.99
2022-09-14T12:06:38.343Z,998.01
2022-09-14T12:07:38.366Z,998.02
2022-09-14T12:08:38.289Z,998.08
2022-09-14T12:09:38.376Z,998.07
2022-09-14T12:10:40.798Z,998.08
2022-09-14T12:11:38.273Z,998.09
2022-09-14T12:12:38.335Z,998.13
2022-09-14T12:13:38.323Z,998.10
2022-09-14T12:14:38.258Z,998.11
2022-09-14T12:15:38.289Z,998.13
2022-09-14T12:16:38.271Z,998.11
2022-09-14T12:17:40.577Z,998.10
2022-09-14T12:18:38.303Z,998.06
2022-09-14T12:19:38.153Z,998.06
2022-09-14T12:20:38.221Z,998.04
2022-09-14T12:21:38.241Z,998.05
2022-09-14T12:22:38.150Z,998.04
2022-09-14T12:23:38.236Z,998.03
2022-09-14T12:24:38.113Z,998.00
2022-09-14T12:25:38.203Z,998.04
2022-09-14T12:26:38.088Z,998.01
2022-09-14T12:27:38.175Z,998.04
2022-09-14T12:28:38.062Z,998.05
2022-09-14T12:29:38.024Z,998.01